Terminal Aerodrome Forecast
Issued by NWS

Home | Current Version | Previous Version | Text Only | Print | Product List | Glossary On
Versions: 1 2 3 4 5 6 7 8 9 10 11 12 13 14 15 16 17 18 19 20
000
FTUS43 KDLH 272200 AAA
TAFBRD
TAF AMD
KBRD 272201Z 2722/2818 26007KT 5SM -RA BR FEW015 OVC060
     FM280000 28006KT P6SM -SHRA SCT015 BKN050
     FM280400 27010KT P6SM SCT030 BKN050
     FM280900 26008KT P6SM SCT015 BKN030
     FM281400 28010G23KT P6SM VCSH SCT025 BKN040=

USA.gov is the U.S. government's official web portal to all federal, state and local government web resources and services.